Time;durP1;ratioP1;P1;durP2;ratioP2;P2;SDS_P1;SDS_P2;PMS_P1;PMS_P2;Temp;Humidity;BMP_temperature;BMP_pressure;BME280_temperature;BME280_humidity;BME280_pressure;Samples;Min_cycle;Max_cycle;Signal;HPM_P1;HPM_P2
2022/12/31 00:00:27;;;;;;;13.85;7.30;;;;;;;;;;5151727;27;20055;-76
2022/12/31 00:02:53;;;;;;;15.93;7.47;;;;;;;;;;5150372;27;20065;-76
2022/12/31 00:05:18;;;;;;;14.32;7.43;;;;;;;;;;5151805;27;20031;-70
2022/12/31 00:07:44;;;;;;;16.80;7.57;;;;;;;;;;5152015;27;20027;-68
2022/12/31 00:10:09;;;;;;;24.15;8.25;;;;;;;;;;5151731;27;20106;-71
2022/12/31 00:12:34;;;;;;;17.50;7.07;;;;;;;;;;5151960;27;20038;-76
2022/12/31 00:15:00;;;;;;;15.15;7.05;;;;;;;;;;5151915;27;20037;-69
2022/12/31 00:17:25;;;;;;;12.75;6.70;;;;;;;;;;5151760;27;20043;-72
2022/12/31 00:19:50;;;;;;;17.90;7.18;;;;;;;;;;5151311;27;20038;-69
2022/12/31 00:22:16;;;;;;;13.60;7.22;;;;;;;;;;5151625;27;20470;-69
2022/12/31 00:24:41;;;;;;;12.32;6.32;;;;;;;;;;5151505;27;20022;-73
2022/12/31 00:27:07;;;;;;;17.08;7.00;;;;;;;;;;5151662;27;20596;-73
2022/12/31 00:29:32;;;;;;;13.98;6.55;;;;;;;;;;5151726;27;20038;-68
2022/12/31 00:31:57;;;;;;;13.93;6.57;;;;;;;;;;5151615;27;20030;-76
2022/12/31 00:34:23;;;;;;;16.20;7.20;;;;;;;;;;5151541;27;20034;-76
2022/12/31 00:36:48;;;;;;;12.90;6.38;;;;;;;;;;5151806;27;20023;-76
2022/12/31 00:39:14;;;;;;;13.40;6.90;;;;;;;;;;5151664;27;20386;-68
2022/12/31 00:41:39;;;;;;;14.48;6.40;;;;;;;;;;5151351;27;20043;-74
2022/12/31 00:44:04;;;;;;;12.32;6.50;;;;;;;;;;5152706;27;20046;-73
2022/12/31 00:46:30;;;;;;;14.52;6.80;;;;;;;;;;5155550;27;20030;-69
2022/12/31 00:48:56;;;;;;;14.88;6.70;;;;;;;;;;5155432;27;20152;-72
2022/12/31 00:51:23;;;;;;;11.50;6.45;;;;;;;;;;5155127;27;20493;-76
2022/12/31 00:53:48;;;;;;;13.45;6.80;;;;;;;;;;5154108;27;20478;-71
2022/12/31 00:56:17;;;;;;;15.27;6.80;;;;;;;;;;5155385;27;20102;-71
2022/12/31 00:58:43;;;;;;;12.07;6.30;;;;;;;;;;5155153;27;20019;-75
2022/12/31 01:01:15;;;;;;;13.13;7.20;;;;;;;;;;5154812;27;20025;-77
2022/12/31 01:03:41;;;;;;;12.90;6.20;;;;;;;;;;5154819;27;20490;-70
2022/12/31 01:06:07;;;;;;;13.27;6.18;;;;;;;;;;5155078;27;20023;-73
2022/12/31 01:08:32;;;;;;;12.55;6.85;;;;;;;;;;5155005;27;20018;-72
2022/12/31 01:13:42;;;;;;;13.02;6.65;;;;;;;;;;5155128;27;20509;-73
2022/12/31 01:16:11;;;;;;;15.20;6.70;;;;;;;;;;5154907;27;20026;-69
2022/12/31 01:18:37;;;;;;;12.52;6.75;;;;;;;;;;5154622;27;20436;-74
2022/12/31 01:21:04;;;;;;;14.23;6.88;;;;;;;;;;5154497;27;20400;-72
2022/12/31 01:23:30;;;;;;;14.65;6.85;;;;;;;;;;5154730;27;20439;-73
2022/12/31 01:26:00;;;;;;;12.52;6.85;;;;;;;;;;5154454;27;20478;-76
2022/12/31 01:28:25;;;;;;;14.73;6.47;;;;;;;;;;5154495;27;20121;-74
2022/12/31 01:30:51;;;;;;;14.73;7.55;;;;;;;;;;5154481;27;20106;-75
2022/12/31 01:33:16;;;;;;;15.68;6.95;;;;;;;;;;5154497;27;20019;-75
2022/12/31 01:35:42;;;;;;;18.73;7.32;;;;;;;;;;5154519;27;20386;-74
2022/12/31 01:38:07;;;;;;;16.42;7.63;;;;;;;;;;5154401;27;20372;-75
2022/12/31 01:40:36;;;;;;;17.25;7.65;;;;;;;;;;5154093;27;20030;-74
2022/12/31 01:43:02;;;;;;;15.35;6.90;;;;;;;;;;5154068;27;20034;-74
2022/12/31 01:45:28;;;;;;;13.32;6.90;;;;;;;;;;5154279;27;20022;-74
2022/12/31 01:47:58;;;;;;;14.50;7.07;;;;;;;;;;5154108;27;20066;-72
2022/12/31 01:50:28;;;;;;;12.80;7.40;;;;;;;;;;5154268;27;20027;-75
2022/12/31 01:53:00;;;;;;;15.07;7.43;;;;;;;;;;5154257;27;20057;-73
2022/12/31 01:55:37;;;;;;;12.82;7.13;;;;;;;;;;5153562;27;20026;-71
2022/12/31 01:58:33;;;;;;;14.38;7.45;;;;;;;;;;5154025;27;20062;-71
2022/12/31 02:00:59;;;;;;;14.07;7.13;;;;;;;;;;5152539;27;20714;-71
2022/12/31 02:03:27;;;;;;;15.52;7.30;;;;;;;;;;5153763;27;20022;-68
2022/12/31 02:06:01;;;;;;;14.93;7.20;;;;;;;;;;5153919;27;20018;-67
2022/12/31 02:08:27;;;;;;;16.60;7.40;;;;;;;;;;5153746;27;20019;-69
2022/12/31 02:10:52;;;;;;;17.00;7.47;;;;;;;;;;5153699;27;20030;-69
2022/12/31 02:13:17;;;;;;;16.40;7.28;;;;;;;;;;5153753;27;20026;-69
2022/12/31 02:16:10;;;;;;;17.20;7.80;;;;;;;;;;5153635;27;20109;-69
2022/12/31 02:18:43;;;;;;;13.85;6.97;;;;;;;;;;5153370;27;20030;-71
2022/12/31 02:21:24;;;;;;;17.17;7.40;;;;;;;;;;5153251;27;20505;-68
2022/12/31 02:24:28;;;;;;;15.57;7.38;;;;;;;;;;5153600;27;20478;-69
2022/12/31 02:26:58;;;;;;;17.40;6.88;;;;;;;;;;5096712;27;20110;-69
2022/12/31 02:29:26;;;;;;;12.05;7.25;;;;;;;;;;5153464;27;20022;-69
2022/12/31 02:31:58;;;;;;;11.40;6.60;;;;;;;;;;5153296;27;20023;-68
2022/12/31 02:34:32;;;;;;;16.45;6.72;;;;;;;;;;5153232;27;20482;-68
2022/12/31 02:37:02;;;;;;;19.73;7.20;;;;;;;;;;5153392;27;20374;-68
2022/12/31 02:39:28;;;;;;;16.42;7.10;;;;;;;;;;5153029;27;20026;-68
2022/12/31 02:41:53;;;;;;;12.35;6.50;;;;;;;;;;5152833;27;20023;-68
2022/12/31 02:44:25;;;;;;;15.25;7.32;;;;;;;;;;5152922;27;20091;-68
2022/12/31 02:47:20;;;;;;;16.92;7.32;;;;;;;;;;5153196;27;20185;-68
2022/12/31 02:50:07;;;;;;;11.02;6.80;;;;;;;;;;5151560;27;20022;-68
2022/12/31 02:52:48;;;;;;;15.73;6.63;;;;;;;;;;5152911;27;20057;-68
2022/12/31 02:55:17;;;;;;;13.52;6.90;;;;;;;;;;5152900;27;20026;-68
2022/12/31 02:58:04;;;;;;;14.13;6.40;;;;;;;;;;5152782;27;20084;-67
2022/12/31 03:03:18;;;;;;;11.55;6.20;;;;;;;;;;5152748;27;20030;-68
2022/12/31 03:05:47;;;;;;;13.05;6.35;;;;;;;;;;5152718;27;20034;-67
2022/12/31 03:08:20;;;;;;;14.17;7.10;;;;;;;;;;5150919;27;20547;-67
2022/12/31 03:10:45;;;;;;;14.90;6.88;;;;;;;;;;5161577;27;20027;-67
2022/12/31 03:13:11;;;;;;;13.70;6.47;;;;;;;;;;5164188;27;20447;-67
2022/12/31 03:15:37;;;;;;;14.52;7.15;;;;;;;;;;5152969;27;20047;-68
2022/12/31 03:18:05;;;;;;;15.15;6.70;;;;;;;;;;5154755;27;20235;-68
2022/12/31 03:23:23;;;;;;;14.65;6.53;;;;;;;;;;5153022;27;20628;-68
2022/12/31 03:25:49;;;;;;;12.90;7.22;;;;;;;;;;5152476;27;20033;-71
2022/12/31 03:28:17;;;;;;;15.88;6.78;;;;;;;;;;5152271;27;20023;-72
2022/12/31 03:30:46;;;;;;;12.07;6.78;;;;;;;;;;5152432;27;20026;-76
2022/12/31 03:33:11;;;;;;;13.27;6.40;;;;;;;;;;5152095;27;20026;-71
2022/12/31 03:35:39;;;;;;;15.18;6.45;;;;;;;;;;5150738;27;20030;-71
2022/12/31 03:38:04;;;;;;;14.35;6.53;;;;;;;;;;5152187;27;20019;-75
2022/12/31 03:40:33;;;;;;;17.77;6.63;;;;;;;;;;5152118;27;20042;-74
2022/12/31 03:42:58;;;;;;;12.38;5.82;;;;;;;;;;5151770;27;20473;-73
2022/12/31 03:45:24;;;;;;;15.73;6.32;;;;;;;;;;5152255;27;20151;-73
2022/12/31 03:47:49;;;;;;;13.93;6.45;;;;;;;;;;5152097;27;20057;-76
2022/12/31 03:50:16;;;;;;;12.43;6.10;;;;;;;;;;5152130;27;20042;-75
2022/12/31 03:52:42;;;;;;;15.05;6.32;;;;;;;;;;5150577;27;20159;-73
2022/12/31 03:55:09;;;;;;;12.90;6.18;;;;;;;;;;5152243;27;20118;-73
2022/12/31 03:57:34;;;;;;;13.27;6.55;;;;;;;;;;5151821;27;20443;-73
2022/12/31 04:00:00;;;;;;;15.45;6.30;;;;;;;;;;5151730;27;20023;-73
2022/12/31 04:02:25;;;;;;;21.38;6.80;;;;;;;;;;5151524;27;20549;-73
2022/12/31 04:04:50;;;;;;;19.05;6.30;;;;;;;;;;5151975;27;20397;-74
2022/12/31 04:07:16;;;;;;;15.60;6.80;;;;;;;;;;5152071;27;20029;-69
2022/12/31 04:09:41;;;;;;;14.45;6.60;;;;;;;;;;5152231;27;20118;-72
2022/12/31 04:12:07;;;;;;;15.73;6.70;;;;;;;;;;5151902;27;20459;-69
2022/12/31 04:14:32;;;;;;;16.67;6.28;;;;;;;;;;5151908;27;20019;-68
2022/12/31 04:16:58;;;;;;;14.10;6.30;;;;;;;;;;5151868;27;20075;-68
2022/12/31 04:19:23;;;;;;;14.52;6.18;;;;;;;;;;5155144;27;20023;-68
2022/12/31 04:21:48;;;;;;;10.90;5.50;;;;;;;;;;5155707;27;20449;-69
2022/12/31 04:24:14;;;;;;;13.82;6.53;;;;;;;;;;5155974;27;20014;-68
2022/12/31 04:26:39;;;;;;;14.30;6.40;;;;;;;;;;5155660;27;20381;-68
2022/12/31 04:29:05;;;;;;;13.68;6.30;;;;;;;;;;5155806;27;20402;-68
2022/12/31 04:31:31;;;;;;;16.80;6.68;;;;;;;;;;5155714;27;20018;-70
2022/12/31 04:33:56;;;;;;;12.68;6.30;;;;;;;;;;5155574;27;20111;-69
2022/12/31 04:36:21;;;;;;;13.35;6.32;;;;;;;;;;5154326;27;20015;-67
2022/12/31 04:38:47;;;;;;;13.48;6.35;;;;;;;;;;5155440;27;20062;-68
2022/12/31 04:41:21;;;;;;;14.25;6.70;;;;;;;;;;5155427;27;20015;-67
2022/12/31 04:43:52;;;;;;;12.40;6.63;;;;;;;;;;5155186;27;20122;-67
2022/12/31 04:46:24;;;;;;;14.00;6.13;;;;;;;;;;5155475;27;20467;-67
2022/12/31 04:48:50;;;;;;;14.68;6.72;;;;;;;;;;5155258;27;20381;-69
2022/12/31 04:51:16;;;;;;;10.95;5.63;;;;;;;;;;5155403;27;20110;-68
2022/12/31 04:53:41;;;;;;;14.48;6.35;;;;;;;;;;5155253;27;20466;-68
2022/12/31 04:56:08;;;;;;;11.60;5.95;;;;;;;;;;5155341;27;20085;-68
2022/12/31 04:58:34;;;;;;;14.43;6.10;;;;;;;;;;5155068;27;20027;-69
2022/12/31 05:01:00;;;;;;;14.30;6.22;;;;;;;;;;5155037;27;20025;-68
2022/12/31 05:03:25;;;;;;;11.95;6.03;;;;;;;;;;5154646;27;20093;-68
2022/12/31 05:05:52;;;;;;;16.90;6.38;;;;;;;;;;5155186;27;20023;-70
2022/12/31 05:08:18;;;;;;;12.68;5.95;;;;;;;;;;5155129;27;20031;-75
2022/12/31 05:10:46;;;;;;;12.98;6.05;;;;;;;;;;5155179;27;20109;-71
2022/12/31 05:13:12;;;;;;;9.73;5.35;;;;;;;;;;5154793;27;20498;-75
2022/12/31 05:15:38;;;;;;;17.77;6.35;;;;;;;;;;5154801;27;20054;-69
2022/12/31 05:18:04;;;;;;;14.07;5.72;;;;;;;;;;5154588;27;20027;-68
2022/12/31 05:20:29;;;;;;;15.00;6.28;;;;;;;;;;5154784;27;20056;-71
2022/12/31 05:22:55;;;;;;;14.95;6.35;;;;;;;;;;5154506;27;20023;-68
2022/12/31 05:25:20;;;;;;;14.63;6.20;;;;;;;;;;5154558;27;20058;-68
2022/12/31 05:27:46;;;;;;;13.27;5.85;;;;;;;;;;5154765;27;20071;-70
2022/12/31 05:30:12;;;;;;;12.50;5.75;;;;;;;;;;5153723;27;20046;-69
2022/12/31 05:32:37;;;;;;;14.30;6.30;;;;;;;;;;5154420;27;20076;-70
2022/12/31 05:35:04;;;;;;;17.13;6.25;;;;;;;;;;5153128;27;20031;-69
2022/12/31 05:37:30;;;;;;;19.98;6.57;;;;;;;;;;5154413;27;20027;-68
2022/12/31 05:39:55;;;;;;;14.52;6.78;;;;;;;;;;5154241;27;20018;-68
2022/12/31 05:42:21;;;;;;;13.32;6.53;;;;;;;;;;5154200;27;20034;-67
2022/12/31 05:44:47;;;;;;;16.90;6.55;;;;;;;;;;5154122;27;20171;-68
2022/12/31 05:47:13;;;;;;;14.40;6.57;;;;;;;;;;5154553;27;20114;-68
2022/12/31 05:49:38;;;;;;;14.57;6.28;;;;;;;;;;5154108;27;20386;-68
2022/12/31 05:52:03;;;;;;;12.95;6.63;;;;;;;;;;5154082;27;20027;-68
2022/12/31 05:54:29;;;;;;;15.85;6.68;;;;;;;;;;5154065;27;20114;-68
2022/12/31 05:56:54;;;;;;;15.93;6.50;;;;;;;;;;5154154;27;20030;-68
2022/12/31 05:59:20;;;;;;;18.00;6.40;;;;;;;;;;5153894;27;20470;-69
2022/12/31 06:01:45;;;;;;;14.93;6.72;;;;;;;;;;5154382;27;20034;-68
2022/12/31 06:04:11;;;;;;;14.10;6.53;;;;;;;;;;5154372;27;20030;-75
2022/12/31 06:06:36;;;;;;;14.63;6.30;;;;;;;;;;5154036;27;20390;-71
2022/12/31 06:09:02;;;;;;;12.98;6.18;;;;;;;;;;5153987;27;20022;-73
2022/12/31 06:11:27;;;;;;;15.77;6.05;;;;;;;;;;5154001;27;20027;-76
2022/12/31 06:13:53;;;;;;;15.43;6.18;;;;;;;;;;5153573;27;20043;-72
2022/12/31 06:16:18;;;;;;;16.02;6.45;;;;;;;;;;5153629;27;20138;-72
2022/12/31 06:18:46;;;;;;;15.40;5.88;;;;;;;;;;5153453;27;20031;-74
2022/12/31 06:21:11;;;;;;;18.20;6.43;;;;;;;;;;5153559;27;20019;-73
2022/12/31 06:23:39;;;;;;;18.67;5.95;;;;;;;;;;5153395;27;20019;-75
2022/12/31 06:26:05;;;;;;;12.25;5.90;;;;;;;;;;5153439;27;20023;-75
2022/12/31 06:28:32;;;;;;;15.55;6.10;;;;;;;;;;5153298;27;20057;-72
2022/12/31 06:31:06;;;;;;;14.40;6.05;;;;;;;;;;5153585;27;20481;-68
2022/12/31 06:33:32;;;;;;;15.07;6.30;;;;;;;;;;5152982;27;20572;-69
2022/12/31 06:35:59;;;;;;;14.73;5.65;;;;;;;;;;5153351;27;20027;-71
2022/12/31 06:38:26;;;;;;;14.15;6.18;;;;;;;;;;5153221;27;20628;-72
2022/12/31 06:40:52;;;;;;;14.05;5.97;;;;;;;;;;5153163;27;20030;-72
2022/12/31 06:43:17;;;;;;;12.07;5.72;;;;;;;;;;5152828;27;20039;-71
2022/12/31 06:45:43;;;;;;;10.80;5.57;;;;;;;;;;5153239;27;20018;-75
2022/12/31 06:48:08;;;;;;;13.25;5.65;;;;;;;;;;5153000;27;20546;-71
2022/12/31 06:50:34;;;;;;;15.02;6.03;;;;;;;;;;5152910;27;20050;-73
2022/12/31 06:52:59;;;;;;;11.18;5.68;;;;;;;;;;5152884;27;20066;-75
2022/12/31 06:55:25;;;;;;;14.93;5.35;;;;;;;;;;5152889;27;20025;-71
2022/12/31 06:57:51;;;;;;;9.32;5.30;;;;;;;;;;5152760;27;20181;-68
2022/12/31 07:00:18;;;;;;;13.63;5.78;;;;;;;;;;5152896;27;20023;-68
2022/12/31 07:03:02;;;;;;;12.80;5.55;;;;;;;;;;5152469;27;20022;-68
2022/12/31 07:05:43;;;;;;;13.77;5.47;;;;;;;;;;5152718;27;20022;-68
2022/12/31 07:08:46;;;;;;;13.30;5.93;;;;;;;;;;5152891;27;20464;-68
2022/12/31 07:11:22;;;;;;;12.65;5.60;;;;;;;;;;5088690;28;20761;-68
2022/12/31 07:14:05;;;;;;;11.00;5.22;;;;;;;;;;5088300;28;20434;-68
2022/12/31 07:17:02;;;;;;;14.85;5.63;;;;;;;;;;5129856;27;20076;-68
2022/12/31 07:19:31;;;;;;;10.18;5.63;;;;;;;;;;5146146;27;20538;-68
2022/12/31 07:21:58;;;;;;;12.63;5.30;;;;;;;;;;5152376;27;20027;-68
2022/12/31 07:24:23;;;;;;;12.60;5.60;;;;;;;;;;5152265;27;20077;-68
2022/12/31 07:27:20;;;;;;;11.07;5.40;;;;;;;;;;5152291;27;20023;-69
2022/12/31 07:30:07;;;;;;;12.45;5.00;;;;;;;;;;5152386;27;20049;-67
2022/12/31 07:32:51;;;;;;;15.50;5.50;;;;;;;;;;5152169;27;20029;-69
2022/12/31 07:35:27;;;;;;;10.00;5.00;;;;;;;;;;5152233;27;20079;-68
2022/12/31 07:38:18;;;;;;;10.90;5.13;;;;;;;;;;5152166;27;20015;-68
2022/12/31 07:41:03;;;;;;;13.55;5.30;;;;;;;;;;5127505;27;20087;-69
2022/12/31 07:43:31;;;;;;;14.18;5.10;;;;;;;;;;5151711;27;20053;-69
2022/12/31 07:46:24;;;;;;;13.00;4.70;;;;;;;;;;5152327;27;20023;-70
2022/12/31 07:48:50;;;;;;;10.80;5.15;;;;;;;;;;5152120;27;20033;-69
2022/12/31 07:51:16;;;;;;;12.38;4.90;;;;;;;;;;5152134;27;20027;-68
2022/12/31 07:53:41;;;;;;;11.23;4.70;;;;;;;;;;5149930;27;20030;-68
2022/12/31 07:56:08;;;;;;;11.38;4.78;;;;;;;;;;5151991;27;20018;-69
2022/12/31 07:58:39;;;;;;;11.68;4.95;;;;;;;;;;5151826;27;20529;-68
2022/12/31 08:01:11;;;;;;;15.52;5.38;;;;;;;;;;5151864;27;20023;-68
2022/12/31 08:03:55;;;;;;;9.27;4.95;;;;;;;;;;5151521;27;20026;-69
2022/12/31 08:06:39;;;;;;;10.57;4.88;;;;;;;;;;5151973;27;20493;-69
2022/12/31 08:09:52;;;;;;;9.07;4.50;;;;;;;;;;5151844;27;20025;-69
2022/12/31 08:12:18;;;;;;;10.90;4.90;;;;;;;;;;5116729;27;20043;-68
2022/12/31 08:14:46;;;;;;;13.98;4.88;;;;;;;;;;5151339;27;20023;-72
2022/12/31 08:17:13;;;;;;;15.02;4.90;;;;;;;;;;5151933;27;20039;-68
2022/12/31 08:19:39;;;;;;;11.02;4.88;;;;;;;;;;5151505;27;20035;-70
2022/12/31 08:22:04;;;;;;;12.07;4.97;;;;;;;;;;5151713;27;20019;-71
2022/12/31 08:24:48;;;;;;;12.80;4.70;;;;;;;;;;5151415;27;20436;-73
2022/12/31 08:27:25;;;;;;;9.32;4.60;;;;;;;;;;5151515;27;20033;-72
2022/12/31 08:30:01;;;;;;;12.70;4.75;;;;;;;;;;5151775;27;20079;-73
2022/12/31 08:32:57;;;;;;;9.10;4.30;;;;;;;;;;5151703;27;20026;-70
2022/12/31 08:35:43;;;;;;;9.52;4.43;;;;;;;;;;5151475;27;20068;-75
2022/12/31 08:38:40;;;;;;;9.23;4.22;;;;;;;;;;5140219;27;20037;-72
2022/12/31 08:41:35;;;;;;;12.95;4.43;;;;;;;;;;5153730;27;20110;-75
2022/12/31 08:44:31;;;;;;;10.35;4.80;;;;;;;;;;5156221;27;20046;-74
2022/12/31 08:47:05;;;;;;;11.40;4.45;;;;;;;;;;5151942;27;20471;-69
2022/12/31 08:49:34;;;;;;;12.30;5.00;;;;;;;;;;5151412;27;20037;-68
2022/12/31 08:52:00;;;;;;;11.27;4.60;;;;;;;;;;5151511;27;20406;-68
2022/12/31 08:54:26;;;;;;;11.98;4.70;;;;;;;;;;5151214;27;20027;-68
2022/12/31 08:57:17;;;;;;;13.07;4.70;;;;;;;;;;5151374;27;20023;-68
2022/12/31 08:59:43;;;;;;;11.25;5.00;;;;;;;;;;5142629;27;20055;-68
2022/12/31 09:02:32;;;;;;;11.25;4.60;;;;;;;;;;5151378;27;20027;-67
2022/12/31 09:05:22;;;;;;;9.52;4.38;;;;;;;;;;5152087;27;20058;-68
2022/12/31 09:08:20;;;;;;;9.45;4.47;;;;;;;;;;5155250;27;20034;-67
2022/12/31 09:10:57;;;;;;;11.38;5.03;;;;;;;;;;5151561;27;20035;-71
2022/12/31 09:13:47;;;;;;;12.85;4.35;;;;;;;;;;5154931;27;20109;-69
2022/12/31 09:16:27;;;;;;;13.27;5.00;;;;;;;;;;5155053;27;20269;-71
2022/12/31 09:18:52;;;;;;;11.80;4.53;;;;;;;;;;5154512;27;20039;-69
2022/12/31 09:21:18;;;;;;;13.23;4.60;;;;;;;;;;5154946;27;20405;-71
2022/12/31 09:23:43;;;;;;;11.95;4.15;;;;;;;;;;5154489;27;20022;-70
2022/12/31 09:26:31;;;;;;;10.00;4.25;;;;;;;;;;5154782;27;20561;-67
2022/12/31 09:29:25;;;;;;;12.05;4.38;;;;;;;;;;5153319;27;20413;-68
2022/12/31 09:32:08;;;;;;;10.00;4.20;;;;;;;;;;5140621;27;20041;-69
2022/12/31 09:34:40;;;;;;;9.63;3.85;;;;;;;;;;5154229;27;20033;-69
2022/12/31 09:37:15;;;;;;;10.70;4.13;;;;;;;;;;5154526;27;20063;-70
2022/12/31 09:39:46;;;;;;;10.30;4.00;;;;;;;;;;5154430;27;20057;-69
2022/12/31 09:42:41;;;;;;;12.52;4.32;;;;;;;;;;5154476;27;20026;-68
2022/12/31 09:45:43;;;;;;;10.93;4.00;;;;;;;;;;5150755;27;20125;-70
2022/12/31 09:48:43;;;;;;;9.60;4.25;;;;;;;;;;5154296;27;20075;-70
2022/12/31 09:51:19;;;;;;;10.07;3.75;;;;;;;;;;5154270;27;20018;-73
2022/12/31 09:54:17;;;;;;;9.98;3.83;;;;;;;;;;5153772;27;20552;-70
2022/12/31 09:57:09;;;;;;;10.57;3.85;;;;;;;;;;5153903;27;20405;-69
2022/12/31 09:59:57;;;;;;;6.63;3.70;;;;;;;;;;5153470;27;20034;-69
2022/12/31 10:02:43;;;;;;;10.05;4.40;;;;;;;;;;5153899;27;20034;-71
2022/12/31 10:05:34;;;;;;;7.95;3.97;;;;;;;;;;5153453;27;20411;-68
2022/12/31 10:08:21;;;;;;;11.45;4.45;;;;;;;;;;5154053;27;20062;-69
2022/12/31 10:10:54;;;;;;;12.75;4.85;;;;;;;;;;5153723;27;20125;-67
2022/12/31 10:13:52;;;;;;;12.90;4.25;;;;;;;;;;5153818;27;20064;-71
2022/12/31 10:16:48;;;;;;;12.10;4.00;;;;;;;;;;5153064;27;20019;-68
2022/12/31 10:19:43;;;;;;;9.65;3.97;;;;;;;;;;5153486;27;20030;-67
2022/12/31 10:22:27;;;;;;;7.68;3.78;;;;;;;;;;5153048;27;20042;-68
2022/12/31 10:24:56;;;;;;;12.13;4.28;;;;;;;;;;5152063;27;20030;-70
2022/12/31 10:27:36;;;;;;;13.95;3.85;;;;;;;;;;5153278;27;20018;-76
2022/12/31 10:30:13;;;;;;;10.30;3.88;;;;;;;;;;5153356;27;20053;-76
2022/12/31 10:33:05;;;;;;;5.82;3.55;;;;;;;;;;5153242;27;20026;-73
2022/12/31 10:35:40;;;;;;;9.40;3.83;;;;;;;;;;5153049;27;20019;-73
2022/12/31 10:38:23;;;;;;;6.40;3.42;;;;;;;;;;5151690;27;20030;-73
2022/12/31 10:41:04;;;;;;;11.32;4.07;;;;;;;;;;5153097;27;20034;-74
2022/12/31 10:43:57;;;;;;;10.48;4.40;;;;;;;;;;5151687;27;20126;-72
2022/12/31 10:46:41;;;;;;;10.63;4.18;;;;;;;;;;5153061;27;20029;-74
2022/12/31 10:49:31;;;;;;;10.27;3.75;;;;;;;;;;5152972;27;20371;-75
2022/12/31 10:52:42;;;;;;;8.82;4.22;;;;;;;;;;5152723;27;20061;-70
2022/12/31 10:55:41;;;;;;;14.05;4.07;;;;;;;;;;5120238;27;20030;-74
2022/12/31 10:58:34;;;;;;;12.18;4.20;;;;;;;;;;5152710;27;20075;-69
2022/12/31 11:01:18;;;;;;;8.18;3.63;;;;;;;;;;5152738;27;20046;-68
2022/12/31 11:04:21;;;;;;;13.98;4.93;;;;;;;;;;5152632;27;20410;-68
2022/12/31 11:07:31;;;;;;;12.75;3.85;;;;;;;;;;5151295;27;20076;-68
2022/12/31 11:09:59;;;;;;;10.00;4.10;;;;;;;;;;5136410;27;20043;-69
2022/12/31 11:12:45;;;;;;;10.27;4.15;;;;;;;;;;5152722;27;20030;-72
2022/12/31 11:15:20;;;;;;;9.18;3.80;;;;;;;;;;5152158;27;20037;-69
2022/12/31 11:18:00;;;;;;;8.25;4.00;;;;;;;;;;5152472;27;20027;-72
2022/12/31 11:20:50;;;;;;;12.23;4.00;;;;;;;;;;5152592;27;20019;-73
2022/12/31 11:23:41;;;;;;;9.60;4.17;;;;;;;;;;5152380;27;20060;-68
2022/12/31 11:26:31;;;;;;;10.18;3.72;;;;;;;;;;5144171;27;20037;-71
2022/12/31 11:29:02;;;;;;;11.23;3.45;;;;;;;;;;5151831;27;20026;-73
2022/12/31 11:31:57;;;;;;;9.20;3.80;;;;;;;;;;5152534;27;20029;-70
2022/12/31 11:34:31;;;;;;;10.40;4.03;;;;;;;;;;5150873;27;20050;-72
2022/12/31 11:36:56;;;;;;;8.75;3.63;;;;;;;;;;5152143;27;20187;-69
2022/12/31 11:39:43;;;;;;;11.35;4.07;;;;;;;;;;5152191;27;20121;-69
2022/12/31 11:42:33;;;;;;;8.88;3.33;;;;;;;;;;5152322;27;20067;-69
2022/12/31 11:45:12;;;;;;;10.27;4.07;;;;;;;;;;5151768;27;20103;-69
2022/12/31 11:47:47;;;;;;;7.93;4.00;;;;;;;;;;5152238;27;20027;-70
2022/12/31 11:50:26;;;;;;;9.43;4.05;;;;;;;;;;5152015;27;20030;-68
2022/12/31 11:53:10;;;;;;;10.85;3.70;;;;;;;;;;5152018;27;20375;-72
2022/12/31 11:55:52;;;;;;;8.52;3.60;;;;;;;;;;5151630;27;20079;-73
2022/12/31 11:58:19;;;;;;;9.73;3.78;;;;;;;;;;5152153;27;20505;-68
2022/12/31 12:01:07;;;;;;;10.90;3.70;;;;;;;;;;5151978;27;20031;-71
2022/12/31 12:03:37;;;;;;;7.05;3.63;;;;;;;;;;5151833;27;20022;-69
2022/12/31 12:06:03;;;;;;;7.07;3.63;;;;;;;;;;5151824;27;20581;-72
2022/12/31 12:08:30;;;;;;;5.57;3.33;;;;;;;;;;5151965;27;20058;-70
2022/12/31 12:11:05;;;;;;;9.50;3.60;;;;;;;;;;5151791;27;20424;-72
2022/12/31 12:13:30;;;;;;;9.60;3.60;;;;;;;;;;5151795;27;20047;-69
2022/12/31 12:15:58;;;;;;;13.98;3.80;;;;;;;;;;5151518;27;20030;-73
2022/12/31 12:18:28;;;;;;;6.53;3.13;;;;;;;;;;5151599;27;20019;-69
2022/12/31 12:21:02;;;;;;;8.13;3.72;;;;;;;;;;5151762;27;20034;-71
2022/12/31 12:23:28;;;;;;;8.45;3.35;;;;;;;;;;5151773;27;20027;-74
2022/12/31 12:25:53;;;;;;;6.95;3.15;;;;;;;;;;5151733;27;20023;-76
2022/12/31 12:28:26;;;;;;;9.57;3.75;;;;;;;;;;5151725;27;20025;-72
2022/12/31 12:30:53;;;;;;;8.60;3.70;;;;;;;;;;5151641;27;20023;-74
2022/12/31 12:33:19;;;;;;;8.10;3.55;;;;;;;;;;5151732;27;20048;-73
2022/12/31 12:35:45;;;;;;;9.55;3.70;;;;;;;;;;5151353;27;20483;-71
2022/12/31 12:38:19;;;;;;;8.25;3.55;;;;;;;;;;5151695;27;20021;-75
2022/12/31 12:40:57;;;;;;;10.50;3.70;;;;;;;;;;5155618;27;20015;-73
2022/12/31 12:43:29;;;;;;;7.70;3.53;;;;;;;;;;5155274;27;20095;-74
2022/12/31 12:46:00;;;;;;;11.70;3.67;;;;;;;;;;5155281;27;20031;-74
2022/12/31 12:48:43;;;;;;;8.88;3.25;;;;;;;;;;5153966;27;20026;-73
2022/12/31 12:51:23;;;;;;;10.13;3.55;;;;;;;;;;5155407;27;20022;-71
2022/12/31 12:53:58;;;;;;;8.65;3.55;;;;;;;;;;5155231;27;20029;-74
2022/12/31 12:56:47;;;;;;;6.55;2.95;;;;;;;;;;5153573;27;20076;-72
2022/12/31 12:59:29;;;;;;;6.63;3.42;;;;;;;;;;5155426;27;20029;-68
2022/12/31 13:01:55;;;;;;;8.00;3.22;;;;;;;;;;5153966;27;20041;-68
2022/12/31 13:04:20;;;;;;;8.23;3.38;;;;;;;;;;5155215;27;20031;-73
2022/12/31 13:06:56;;;;;;;11.30;3.60;;;;;;;;;;5155081;27;20093;-69
2022/12/31 13:09:48;;;;;;;5.93;3.20;;;;;;;;;;5155083;27;20023;-71
2022/12/31 13:12:17;;;;;;;7.03;3.38;;;;;;;;;;5154958;27;20076;-68
2022/12/31 13:15:07;;;;;;;7.47;3.30;;;;;;;;;;5154606;27;20552;-72
2022/12/31 13:17:57;;;;;;;7.05;3.33;;;;;;;;;;5154851;27;20027;-72
2022/12/31 13:20:35;;;;;;;9.90;3.80;;;;;;;;;;5154832;27;20212;-72
2022/12/31 13:23:16;;;;;;;8.15;3.60;;;;;;;;;;5154872;27;20113;-74
2022/12/31 13:25:55;;;;;;;7.13;3.20;;;;;;;;;;5154622;27;20530;-69
2022/12/31 13:28:22;;;;;;;8.43;3.20;;;;;;;;;;5154580;27;20505;-72
2022/12/31 13:30:52;;;;;;;9.20;3.55;;;;;;;;;;5153265;27;20026;-73
2022/12/31 13:33:29;;;;;;;7.32;3.40;;;;;;;;;;5154343;27;20023;-70
2022/12/31 13:36:04;;;;;;;8.52;3.67;;;;;;;;;;5154251;27;20570;-68
2022/12/31 13:38:34;;;;;;;6.70;2.97;;;;;;;;;;5154387;27;20481;-69
2022/12/31 13:41:12;;;;;;;8.57;3.03;;;;;;;;;;5154508;27;20029;-70
2022/12/31 13:43:57;;;;;;;7.03;2.90;;;;;;;;;;5154201;27;20569;-69
2022/12/31 13:46:37;;;;;;;9.93;3.25;;;;;;;;;;5154234;27;20057;-68
2022/12/31 13:49:11;;;;;;;13.27;3.47;;;;;;;;;;5154199;27;20023;-68
2022/12/31 13:51:54;;;;;;;7.40;3.30;;;;;;;;;;5153409;27;20043;-68
2022/12/31 13:54:30;;;;;;;7.28;2.92;;;;;;;;;;5154161;27;20105;-68
2022/12/31 13:57:01;;;;;;;6.47;3.08;;;;;;;;;;5153744;27;20018;-69
2022/12/31 13:59:40;;;;;;;6.18;2.92;;;;;;;;;;5154141;27;20087;-68
2022/12/31 14:02:24;;;;;;;5.70;3.08;;;;;;;;;;5154284;27;20109;-67
2022/12/31 14:04:55;;;;;;;6.60;2.95;;;;;;;;;;5158888;27;20030;-68
2022/12/31 14:07:43;;;;;;;7.28;3.00;;;;;;;;;;5165807;27;20023;-69
2022/12/31 14:10:12;;;;;;;8.15;3.25;;;;;;;;;;5155359;27;20023;-68
2022/12/31 14:13:06;;;;;;;6.78;3.00;;;;;;;;;;5154256;27;20109;-70
2022/12/31 14:15:35;;;;;;;8.45;3.20;;;;;;;;;;5153540;27;20098;-69
2022/12/31 14:18:19;;;;;;;6.88;3.17;;;;;;;;;;5153857;27;20460;-70
2022/12/31 14:20:49;;;;;;;6.20;2.83;;;;;;;;;;5153596;27;20018;-69
2022/12/31 14:23:33;;;;;;;5.95;2.85;;;;;;;;;;5153632;27;20075;-68
2022/12/31 14:26:08;;;;;;;8.07;3.00;;;;;;;;;;5153416;27;20041;-69
2022/12/31 14:28:36;;;;;;;7.40;2.70;;;;;;;;;;5153410;27;20510;-68
2022/12/31 14:31:26;;;;;;;6.88;3.20;;;;;;;;;;5153262;27;20371;-70
2022/12/31 14:34:03;;;;;;;7.65;3.00;;;;;;;;;;5141844;27;20038;-70
2022/12/31 14:36:49;;;;;;;7.53;2.95;;;;;;;;;;5153005;27;20030;-70
2022/12/31 14:39:59;;;;;;;8.55;3.25;;;;;;;;;;5153277;27;20033;-74
2022/12/31 14:42:51;;;;;;;11.38;2.90;;;;;;;;;;5153092;27;20105;-69
2022/12/31 14:45:23;;;;;;;8.30;3.47;;;;;;;;;;5152995;27;20232;-73
2022/12/31 14:48:07;;;;;;;8.45;2.85;;;;;;;;;;5152998;27;20470;-71
2022/12/31 14:50:33;;;;;;;8.82;3.05;;;;;;;;;;5152827;27;20031;-68
2022/12/31 14:52:58;;;;;;;9.05;3.53;;;;;;;;;;5153033;27;20033;-72
2022/12/31 14:55:27;;;;;;;9.73;3.65;;;;;;;;;;5152828;27;20026;-69
2022/12/31 14:57:53;;;;;;;11.32;3.40;;;;;;;;;;5153039;27;20058;-74
2022/12/31 15:00:24;;;;;;;10.77;3.60;;;;;;;;;;5152994;27;20051;-73
2022/12/31 15:02:55;;;;;;;9.38;3.53;;;;;;;;;;5151955;27;20026;-73
2022/12/31 15:05:24;;;;;;;9.93;3.58;;;;;;;;;;5152837;27;20473;-69
2022/12/31 15:08:13;;;;;;;9.98;3.50;;;;;;;;;;5152708;27;20031;-71
2022/12/31 15:10:45;;;;;;;10.18;3.95;;;;;;;;;;5152588;27;20367;-73
2022/12/31 15:13:26;;;;;;;14.60;4.00;;;;;;;;;;5152471;27;20089;-75
2022/12/31 15:16:10;;;;;;;10.48;3.80;;;;;;;;;;5152368;27;20027;-75
2022/12/31 15:19:01;;;;;;;12.80;4.05;;;;;;;;;;5152592;27;20087;-73
2022/12/31 15:21:34;;;;;;;10.13;4.00;;;;;;;;;;5152483;27;20027;-76